WARNING - Change wsUserSettings.php: $SITE["topfolder"] from : DATOS/ to: ./
Welcome to our new website - Welkom op onze vernieuwde website - Bienvenue sur notre nouveau site web - Willkommen auf unserer neuen Website
Check our progress frequently. Prüfen Sie unsere Fortschritte regelmäßig. Consultez notre progression fréquemment. Komt u straks nog eens terug


visit paypall to install this item



Thunder radar more information blitzortung!


Rain radar more information rain snow radar


Visita nuestra red de sitios de meteo:

Template documentation
and downloads

And another site



No particular awareness of the weather is required.    There are no Weather-warnings

Informes METAR proximidad

   
EHVK - Volkel Rnlafb, Netherlands
Distancia hasta la estación: SW 18 km
Actualización: 18-06-2021 21:55
Claros  
Claros  
   Viento: West 9.3 km/h
Viento: West 9.3 km/h
Temperatura: 25°C
Punto de rocio: 18°C
Humedad: 65%
Barometro: 1010 hPa
Nublado: Claros
Visibilidad: More than 10 km
detalles de la nube: Claros
EHVK 181955Z AUTO 27005KT 9999 NCD 25/18 Q1010 BLU
EDLV - Niederrhein, Germany
Distancia hasta la estación: SE 25 km
Actualización: 18-06-2021 21:50
Claros  
Claros  
   Viento: SSW 9.3 km/h
Viento: SSW 9.3 km/h
Temperatura: 28°C
Índice de calor: 28°C
Punto de rocio: 16°C
Humedad: 48%
Barometro: 1010 hPa
Visibilidad: More than 10 km
detalles de la nube: Claros
EDLV 181950Z 20005KT CAVOK 28/16 Q1010
EHDL - Deelen Rnlafb, Netherlands
Distancia hasta la estación: N 35 km
Actualización: 18-06-2021 21:55
Nubes dispersas  
Nubes dispersas  
   Viento: North 16.7 km/h
Viento: North 16.7 km/h
Temperatura: 21°C
Punto de rocio: 19°C
Humedad: 88%
Barometro: 1011 hPa
Nublado: Nubes dispersas
Visibilidad: More than 10 km
detalles de la nube: Nubes dispersas 6200 ft
EHDL 181955Z AUTO 01009KT 320V060 9999 FEW062 21/19 Q1011 RETS BLU
EHEH - Eindhoven Rnlafb, Netherlands
Distancia hasta la estación: SW 48 km
Actualización: 18-06-2021 21:55
Nubes dispersas  
Nubes dispersas  
   Viento: WSW 11.1 km/h
Viento: WSW 11.1 km/h
Temperatura: 25°C
Punto de rocio: 19°C
Humedad: 69%
Barometro: 1011 hPa
Nublado: Nubes dispersas
Visibilidad: More than 10 km
detalles de la nube: Nubes dispersas 33000 ft
EHEH 181955Z AUTO 24006KT 220V280 9999 FEW330 25/19 Q1011 BLU NOSIG
EHGR - Gilze-Rijen Rnla, Netherlands
Distancia hasta la estación: WSW 70 km
Actualización: 18-06-2021 21:55
Parcialmente nublado  
Parcialmente nublado  
   Viento: SW 24.1 km/h
Viento: SW 24.1 km/h
Temperatura: 26°C
Punto de rocio: 16°C
Humedad: 54%
Barometro: 1011 hPa
Nublado: Parcialmente nublado
Visibilidad: More than 10 km
detalles de la nube: Parcialmente Nublado 5800 ft,
Parcialmente nublado 6600 ft
EHGR 181955Z AUTO 22013KT 170V260 9999 SCT058 BKN066 26/16 Q1011 BLU
EBBL - Kleine-Brogel(Ba, Belgium
Distancia hasta la estación: SSW 71 km
Actualización: 18-06-2021 21:55
Claros  
Claros  
   Viento: SW 14.8 km/h
Viento: SW 14.8 km/h
Temperatura: 26°C
Punto de rocio: 17°C
Humedad: 58%
Barometro: 1011 hPa
Nublado: Claros
Visibilidad: More than 10 km
detalles de la nube: Claros
EBBL 181955Z AUTO 23008KT 9999 NCD 26/17 Q1011 BLU

Guión original por  Saratoga-weather.org Adaptado para la plantilla por  Weerstation Leuven